sensor_id;sensor_type;location;lat;lon;timestamp;pressure;altitude;pressure_sealevel;temperature;humidity
6349;BME280;3207;42.648;23.406;2023-04-27T00:01:38;100237.47;;;13.52;nan
6349;BME280;3207;42.648;23.406;2023-04-27T00:04:05;100236.53;;;13.53;nan
6349;BME280;3207;42.648;23.406;2023-04-27T00:06:33;100240.81;;;13.54;nan
6349;BME280;3207;42.648;23.406;2023-04-27T00:09:00;100247.34;;;13.60;nan
6349;BME280;3207;42.648;23.406;2023-04-27T00:11:28;100241.50;;;13.56;nan
6349;BME280;3207;42.648;23.406;2023-04-27T00:13:55;100234.72;;;13.53;nan
6349;BME280;3207;42.648;23.406;2023-04-27T00:16:22;100244.59;;;13.61;nan
6349;BME280;3207;42.648;23.406;2023-04-27T00:18:48;100233.63;;;13.56;nan
6349;BME280;3207;42.648;23.406;2023-04-27T00:21:15;100227.09;;;13.50;nan
6349;BME280;3207;42.648;23.406;2023-04-27T00:23:43;100238.66;;;13.48;nan
6349;BME280;3207;42.648;23.406;2023-04-27T00:26:10;100232.22;;;13.52;nan
6349;BME280;3207;42.648;23.406;2023-04-27T00:28:37;100231.16;;;13.54;nan
6349;BME280;3207;42.648;23.406;2023-04-27T00:31:04;100231.94;;;13.34;nan
6349;BME280;3207;42.648;23.406;2023-04-27T00:33:30;100236.06;;;13.37;nan
6349;BME280;3207;42.648;23.406;2023-04-27T00:35:58;100235.59;;;13.43;nan
6349;BME280;3207;42.648;23.406;2023-04-27T00:38:26;100237.38;;;13.42;nan
6349;BME280;3207;42.648;23.406;2023-04-27T00:41:00;100232.00;;;13.44;nan
6349;BME280;3207;42.648;23.406;2023-04-27T00:43:27;100229.00;;;13.48;nan
6349;BME280;3207;42.648;23.406;2023-04-27T00:45:54;100231.34;;;13.31;nan
6349;BME280;3207;42.648;23.406;2023-04-27T00:48:21;100228.00;;;13.29;nan
6349;BME280;3207;42.648;23.406;2023-04-27T00:50:48;100228.59;;;13.32;nan
6349;BME280;3207;42.648;23.406;2023-04-27T00:53:15;100225.03;;;13.11;nan
6349;BME280;3207;42.648;23.406;2023-04-27T00:55:43;100183.44;;;12.73;nan
6349;BME280;3207;42.648;23.406;2023-04-27T00:58:11;100212.16;;;12.74;nan
6349;BME280;3207;42.648;23.406;2023-04-27T01:00:38;100210.38;;;12.64;nan
6349;BME280;3207;42.648;23.406;2023-04-27T01:03:06;100209.94;;;12.59;nan
6349;BME280;3207;42.648;23.406;2023-04-27T01:05:33;100221.59;;;12.66;nan
6349;BME280;3207;42.648;23.406;2023-04-27T01:08:01;100224.72;;;12.60;nan
6349;BME280;3207;42.648;23.406;2023-04-27T01:10:28;100226.59;;;12.46;nan
6349;BME280;3207;42.648;23.406;2023-04-27T01:12:55;100231.59;;;12.38;nan
6349;BME280;3207;42.648;23.406;2023-04-27T01:15:23;100230.16;;;12.34;nan
6349;BME280;3207;42.648;23.406;2023-04-27T01:17:56;100232.75;;;12.23;nan
6349;BME280;3207;42.648;23.406;2023-04-27T01:20:23;100235.03;;;12.17;nan
6349;BME280;3207;42.648;23.406;2023-04-27T01:22:50;100238.97;;;12.33;nan
6349;BME280;3207;42.648;23.406;2023-04-27T01:25:18;100240.78;;;12.44;nan
6349;BME280;3207;42.648;23.406;2023-04-27T01:27:45;100232.81;;;12.57;nan
6349;BME280;3207;42.648;23.406;2023-04-27T01:30:12;100229.47;;;12.66;nan
6349;BME280;3207;42.648;23.406;2023-04-27T01:32:40;100235.06;;;12.72;nan
6349;BME280;3207;42.648;23.406;2023-04-27T01:35:07;100238.78;;;12.81;nan
6349;BME280;3207;42.648;23.406;2023-04-27T01:37:34;100239.34;;;12.73;nan
6349;BME280;3207;42.648;23.406;2023-04-27T01:40:01;100243.75;;;12.73;nan
6349;BME280;3207;42.648;23.406;2023-04-27T01:42:31;100228.50;;;12.56;nan
6349;BME280;3207;42.648;23.406;2023-04-27T01:44:58;100239.63;;;12.70;nan
6349;BME280;3207;42.648;23.406;2023-04-27T01:47:26;100240.91;;;12.54;nan
6349;BME280;3207;42.648;23.406;2023-04-27T01:49:52;100244.72;;;12.50;nan
6349;BME280;3207;42.648;23.406;2023-04-27T01:52:19;100233.72;;;12.33;nan
6349;BME280;3207;42.648;23.406;2023-04-27T01:54:46;100241.25;;;12.38;nan
6349;BME280;3207;42.648;23.406;2023-04-27T01:57:13;100241.16;;;12.39;nan
6349;BME280;3207;42.648;23.406;2023-04-27T01:59:42;100241.38;;;12.36;nan
6349;BME280;3207;42.648;23.406;2023-04-27T02:02:08;100240.28;;;12.28;nan
6349;BME280;3207;42.648;23.406;2023-04-27T02:04:35;100238.34;;;12.30;nan
6349;BME280;3207;42.648;23.406;2023-04-27T02:07:02;100248.16;;;12.39;nan
6349;BME280;3207;42.648;23.406;2023-04-27T02:09:29;100245.78;;;12.47;nan
6349;BME280;3207;42.648;23.406;2023-04-27T02:11:55;100244.84;;;12.48;nan
6349;BME280;3207;42.648;23.406;2023-04-27T02:14:22;100248.03;;;12.52;nan
6349;BME280;3207;42.648;23.406;2023-04-27T02:16:50;100242.34;;;12.58;nan
6349;BME280;3207;42.648;23.406;2023-04-27T02:19:17;100241.63;;;12.56;nan
6349;BME280;3207;42.648;23.406;2023-04-27T02:21:44;100246.63;;;12.59;nan
6349;BME280;3207;42.648;23.406;2023-04-27T02:24:12;100246.03;;;12.66;nan
6349;BME280;3207;42.648;23.406;2023-04-27T02:26:39;100231.84;;;12.58;nan
6349;BME280;3207;42.648;23.406;2023-04-27T02:29:05;100244.25;;;12.67;nan
6349;BME280;3207;42.648;23.406;2023-04-27T02:31:32;100241.13;;;12.73;nan
6349;BME280;3207;42.648;23.406;2023-04-27T02:34:00;100241.53;;;12.79;nan
6349;BME280;3207;42.648;23.406;2023-04-27T02:36:27;100244.59;;;12.84;nan
6349;BME280;3207;42.648;23.406;2023-04-27T02:38:54;100242.94;;;12.83;nan
6349;BME280;3207;42.648;23.406;2023-04-27T02:41:21;100238.50;;;12.84;nan
6349;BME280;3207;42.648;23.406;2023-04-27T02:43:49;100242.47;;;12.90;nan
6349;BME280;3207;42.648;23.406;2023-04-27T02:46:16;100246.28;;;12.86;nan
6349;BME280;3207;42.648;23.406;2023-04-27T02:48:42;100245.31;;;12.75;nan
6349;BME280;3207;42.648;23.406;2023-04-27T02:51:10;100252.00;;;12.79;nan
6349;BME280;3207;42.648;23.406;2023-04-27T02:53:37;100243.66;;;12.74;nan
6349;BME280;3207;42.648;23.406;2023-04-27T02:56:04;100239.25;;;12.75;nan
6349;BME280;3207;42.648;23.406;2023-04-27T02:58:31;100240.31;;;12.72;nan
6349;BME280;3207;42.648;23.406;2023-04-27T03:00:58;100246.38;;;12.62;nan
6349;BME280;3207;42.648;23.406;2023-04-27T03:03:25;100255.34;;;12.59;nan
6349;BME280;3207;42.648;23.406;2023-04-27T03:05:52;100250.31;;;12.56;nan
6349;BME280;3207;42.648;23.406;2023-04-27T03:08:20;100258.31;;;12.55;nan
6349;BME280;3207;42.648;23.406;2023-04-27T03:10:46;100255.22;;;12.50;nan
6349;BME280;3207;42.648;23.406;2023-04-27T03:13:13;100264.88;;;12.49;nan
6349;BME280;3207;42.648;23.406;2023-04-27T03:15:40;100270.13;;;12.49;nan
6349;BME280;3207;42.648;23.406;2023-04-27T03:18:07;100262.81;;;12.41;nan
6349;BME280;3207;42.648;23.406;2023-04-27T03:20:34;100262.81;;;12.41;nan
6349;BME280;3207;42.648;23.406;2023-04-27T03:23:01;100265.44;;;12.41;nan
6349;BME280;3207;42.648;23.406;2023-04-27T03:25:29;100252.81;;;12.35;nan
6349;BME280;3207;42.648;23.406;2023-04-27T03:27:56;100263.66;;;12.42;nan
6349;BME280;3207;42.648;23.406;2023-04-27T03:30:23;100247.56;;;12.35;nan
6349;BME280;3207;42.648;23.406;2023-04-27T03:32:49;100214.28;;;12.14;nan
6349;BME280;3207;42.648;23.406;2023-04-27T03:35:16;100265.44;;;12.41;nan
6349;BME280;3207;42.648;23.406;2023-04-27T03:37:43;100264.84;;;12.38;nan
6349;BME280;3207;42.648;23.406;2023-04-27T03:40:11;100257.81;;;12.27;nan
6349;BME280;3207;42.648;23.406;2023-04-27T03:42:40;100265.66;;;12.27;nan
6349;BME280;3207;42.648;23.406;2023-04-27T03:45:07;100273.53;;;12.27;nan
6349;BME280;3207;42.648;23.406;2023-04-27T03:47:36;100272.81;;;12.25;nan
6349;BME280;3207;42.648;23.406;2023-04-27T03:50:04;100265.63;;;12.16;nan
6349;BME280;3207;42.648;23.406;2023-04-27T03:52:30;100277.78;;;12.17;nan
6349;BME280;3207;42.648;23.406;2023-04-27T03:54:57;100279.91;;;12.12;nan
6349;BME280;3207;42.648;23.406;2023-04-27T03:57:24;100285.25;;;12.10;nan
6349;BME280;3207;42.648;23.406;2023-04-27T03:59:52;100277.75;;;12.06;nan
6349;BME280;3207;42.648;23.406;2023-04-27T04:02:19;100279.09;;;11.88;nan
6349;BME280;3207;42.648;23.406;2023-04-27T04:04:47;100280.66;;;11.90;nan
6349;BME280;3207;42.648;23.406;2023-04-27T04:07:14;100295.66;;;11.88;nan
6349;BME280;3207;42.648;23.406;2023-04-27T04:09:41;100287.47;;;11.93;nan
6349;BME280;3207;42.648;23.406;2023-04-27T04:12:09;100287.56;;;11.91;nan
6349;BME280;3207;42.648;23.406;2023-04-27T04:14:36;100290.19;;;11.91;nan
6349;BME280;3207;42.648;23.406;2023-04-27T04:17:04;100292.91;;;11.90;nan
6349;BME280;3207;42.648;23.406;2023-04-27T04:19:32;100291.97;;;11.91;nan
6349;BME280;3207;42.648;23.406;2023-04-27T04:22:00;100286.13;;;11.87;nan
6349;BME280;3207;42.648;23.406;2023-04-27T04:24:27;100285.91;;;11.90;nan
6349;BME280;3207;42.648;23.406;2023-04-27T04:26:53;100283.19;;;11.92;nan
6349;BME280;3207;42.648;23.406;2023-04-27T04:29:21;100290.72;;;11.96;nan
6349;BME280;3207;42.648;23.406;2023-04-27T04:31:48;100284.50;;;11.97;nan
6349;BME280;3207;42.648;23.406;2023-04-27T04:34:16;100282.59;;;11.99;nan
6349;BME280;3207;42.648;23.406;2023-04-27T04:36:43;100286.78;;;12.02;nan
6349;BME280;3207;42.648;23.406;2023-04-27T04:39:10;100283.22;;;12.03;nan
6349;BME280;3207;42.648;23.406;2023-04-27T04:41:37;100300.59;;;12.04;nan
6349;BME280;3207;42.648;23.406;2023-04-27T04:44:04;100299.78;;;12.03;nan
6349;BME280;3207;42.648;23.406;2023-04-27T04:46:31;100309.19;;;12.06;nan
6349;BME280;3207;42.648;23.406;2023-04-27T04:48:58;100309.09;;;12.07;nan
6349;BME280;3207;42.648;23.406;2023-04-27T04:51:28;100307.28;;;12.08;nan
6349;BME280;3207;42.648;23.406;2023-04-27T04:53:55;100316.50;;;12.14;nan
6349;BME280;3207;42.648;23.406;2023-04-27T04:56:22;100317.09;;;12.17;nan
6349;BME280;3207;42.648;23.406;2023-04-27T04:58:48;100320.41;;;12.19;nan
6349;BME280;3207;42.648;23.406;2023-04-27T05:01:15;100318.19;;;12.26;nan
6349;BME280;3207;42.648;23.406;2023-04-27T05:03:43;100320.25;;;12.33;nan
6349;BME280;3207;42.648;23.406;2023-04-27T05:06:09;100320.03;;;12.36;nan
6349;BME280;3207;42.648;23.406;2023-04-27T05:08:38;100315.88;;;12.45;nan
6349;BME280;3207;42.648;23.406;2023-04-27T05:11:05;100312.19;;;12.48;nan
6349;BME280;3207;42.648;23.406;2023-04-27T05:13:31;100321.75;;;12.60;nan
6349;BME280;3207;42.648;23.406;2023-04-27T05:15:58;100321.13;;;12.56;nan
6349;BME280;3207;42.648;23.406;2023-04-27T05:18:25;100325.44;;;12.57;nan
6349;BME280;3207;42.648;23.406;2023-04-27T05:20:52;100327.69;;;12.62;nan
6349;BME280;3207;42.648;23.406;2023-04-27T05:23:18;100331.03;;;12.64;nan
6349;BME280;3207;42.648;23.406;2023-04-27T05:25:47;100336.41;;;12.73;nan
6349;BME280;3207;42.648;23.406;2023-04-27T05:28:13;100330.84;;;12.89;nan
6349;BME280;3207;42.648;23.406;2023-04-27T05:30:40;100340.00;;;12.95;nan
6349;BME280;3207;42.648;23.406;2023-04-27T05:33:07;100335.97;;;13.02;nan
6349;BME280;3207;42.648;23.406;2023-04-27T05:35:34;100337.53;;;13.15;nan
6349;BME280;3207;42.648;23.406;2023-04-27T05:38:01;100342.56;;;13.18;nan
6349;BME280;3207;42.648;23.406;2023-04-27T05:40:28;100347.69;;;13.20;nan
6349;BME280;3207;42.648;23.406;2023-04-27T05:42:56;100339.69;;;13.22;nan
6349;BME280;3207;42.648;23.406;2023-04-27T05:45:26;100346.13;;;13.17;nan
6349;BME280;3207;42.648;23.406;2023-04-27T05:47:53;100350.91;;;13.12;nan
6349;BME280;3207;42.648;23.406;2023-04-27T05:50:19;100351.34;;;13.06;nan
6349;BME280;3207;42.648;23.406;2023-04-27T05:52:46;100350.09;;;13.23;nan
6349;BME280;3207;42.648;23.406;2023-04-27T05:55:13;100346.84;;;13.42;nan
6349;BME280;3207;42.648;23.406;2023-04-27T05:57:40;100355.44;;;13.55;nan
6349;BME280;3207;42.648;23.406;2023-04-27T06:00:09;100366.13;;;13.74;nan
6349;BME280;3207;42.648;23.406;2023-04-27T06:02:37;100357.97;;;13.88;nan
6349;BME280;3207;42.648;23.406;2023-04-27T06:05:04;100355.97;;;14.13;nan
6349;BME280;3207;42.648;23.406;2023-04-27T06:07:31;100349.47;;;14.28;nan
6349;BME280;3207;42.648;23.406;2023-04-27T06:09:58;100366.09;;;14.28;nan
6349;BME280;3207;42.648;23.406;2023-04-27T06:12:25;100375.63;;;14.41;nan
6349;BME280;3207;42.648;23.406;2023-04-27T06:14:52;100367.09;;;14.48;nan
6349;BME280;3207;42.648;23.406;2023-04-27T06:17:20;100373.94;;;14.40;nan
6349;BME280;3207;42.648;23.406;2023-04-27T06:19:47;100360.59;;;14.20;nan
6349;BME280;3207;42.648;23.406;2023-04-27T06:22:14;100363.53;;;14.38;nan
6349;BME280;3207;42.648;23.406;2023-04-27T06:24:41;100323.03;;;14.41;nan
6349;BME280;3207;42.648;23.406;2023-04-27T06:27:07;100371.63;;;14.88;nan
6349;BME280;3207;42.648;23.406;2023-04-27T06:29:34;100368.84;;;15.10;nan
6349;BME280;3207;42.648;23.406;2023-04-27T06:32:01;100374.69;;;15.14;nan
6349;BME280;3207;42.648;23.406;2023-04-27T06:34:32;100368.47;;;14.94;nan
6349;BME280;3207;42.648;23.406;2023-04-27T06:36:59;100372.56;;;15.08;nan
6349;BME280;3207;42.648;23.406;2023-04-27T06:39:26;100373.44;;;15.18;nan
6349;BME280;3207;42.648;23.406;2023-04-27T06:41:53;100380.50;;;15.17;nan
6349;BME280;3207;42.648;23.406;2023-04-27T06:44:20;100376.66;;;15.21;nan
6349;BME280;3207;42.648;23.406;2023-04-27T06:46:47;100384.47;;;15.32;nan
6349;BME280;3207;42.648;23.406;2023-04-27T06:49:14;100385.69;;;15.59;nan
6349;BME280;3207;42.648;23.406;2023-04-27T06:51:42;100383.66;;;15.72;nan
6349;BME280;3207;42.648;23.406;2023-04-27T06:54:11;100384.50;;;15.82;nan
6349;BME280;3207;42.648;23.406;2023-04-27T06:56:37;100388.53;;;15.86;nan
6349;BME280;3207;42.648;23.406;2023-04-27T06:59:04;100385.47;;;15.81;nan
6349;BME280;3207;42.648;23.406;2023-04-27T07:01:31;100395.66;;;16.05;nan
6349;BME280;3207;42.648;23.406;2023-04-27T07:03:58;100387.47;;;16.18;nan
6349;BME280;3207;42.648;23.406;2023-04-27T07:06:25;100392.44;;;16.01;nan
6349;BME280;3207;42.648;23.406;2023-04-27T07:08:54;100394.09;;;15.93;nan
6349;BME280;3207;42.648;23.406;2023-04-27T07:11:21;100373.44;;;16.07;nan
6349;BME280;3207;42.648;23.406;2023-04-27T07:13:48;100382.75;;;16.31;nan
6349;BME280;3207;42.648;23.406;2023-04-27T07:16:15;100335.94;;;16.14;nan
6349;BME280;3207;42.648;23.406;2023-04-27T07:18:42;100383.84;;;16.76;nan
6349;BME280;3207;42.648;23.406;2023-04-27T07:21:09;100394.22;;;16.97;nan
6349;BME280;3207;42.648;23.406;2023-04-27T07:23:37;100390.22;;;16.93;nan
6349;BME280;3207;42.648;23.406;2023-04-27T07:26:05;100393.53;;;17.05;nan
6349;BME280;3207;42.648;23.406;2023-04-27T07:28:32;100403.72;;;17.27;nan
6349;BME280;3207;42.648;23.406;2023-04-27T07:31:02;100390.16;;;17.12;nan
6349;BME280;3207;42.648;23.406;2023-04-27T07:33:29;100396.97;;;17.15;nan
6349;BME280;3207;42.648;23.406;2023-04-27T07:35:56;100374.56;;;17.19;nan
6349;BME280;3207;42.648;23.406;2023-04-27T07:38:23;100389.56;;;17.55;nan
6349;BME280;3207;42.648;23.406;2023-04-27T07:40:50;100377.41;;;17.35;nan
6349;BME280;3207;42.648;23.406;2023-04-27T07:43:18;100390.81;;;17.51;nan
6349;BME280;3207;42.648;23.406;2023-04-27T07:45:47;100398.72;;;17.61;nan
6349;BME280;3207;42.648;23.406;2023-04-27T07:48:14;100396.03;;;17.71;nan
6349;BME280;3207;42.648;23.406;2023-04-27T07:50:41;100373.69;;;17.83;nan
6349;BME280;3207;42.648;23.406;2023-04-27T07:53:08;100391.03;;;18.13;nan
6349;BME280;3207;42.648;23.406;2023-04-27T07:55:35;100386.22;;;18.26;nan
6349;BME280;3207;42.648;23.406;2023-04-27T07:58:03;100378.69;;;18.57;nan
6349;BME280;3207;42.648;23.406;2023-04-27T08:00:31;100382.38;;;18.82;nan
6349;BME280;3207;42.648;23.406;2023-04-27T08:02:58;100391.13;;;19.26;nan
6349;BME280;3207;42.648;23.406;2023-04-27T08:05:25;100374.19;;;19.53;nan
6349;BME280;3207;42.648;23.406;2023-04-27T08:07:52;100375.78;;;19.80;nan
6349;BME280;3207;42.648;23.406;2023-04-27T08:10:19;100384.72;;;19.70;nan
6349;BME280;3207;42.648;23.406;2023-04-27T08:12:45;100387.78;;;19.24;nan
6349;BME280;3207;42.648;23.406;2023-04-27T08:15:12;100377.75;;;19.10;nan
6349;BME280;3207;42.648;23.406;2023-04-27T08:17:40;100373.66;;;19.15;nan
6349;BME280;3207;42.648;23.406;2023-04-27T08:20:09;100382.22;;;19.43;nan
6349;BME280;3207;42.648;23.406;2023-04-27T08:22:37;100383.00;;;19.61;nan
6349;BME280;3207;42.648;23.406;2023-04-27T08:25:04;100381.88;;;19.72;nan
6349;BME280;3207;42.648;23.406;2023-04-27T08:27:31;100380.03;;;19.72;nan
6349;BME280;3207;42.648;23.406;2023-04-27T08:29:59;100383.44;;;19.91;nan
6349;BME280;3207;42.648;23.406;2023-04-27T08:32:26;100384.38;;;19.73;nan
6349;BME280;3207;42.648;23.406;2023-04-27T08:34:54;100383.34;;;19.58;nan
6349;BME280;3207;42.648;23.406;2023-04-27T08:37:21;100380.34;;;19.61;nan
6349;BME280;3207;42.648;23.406;2023-04-27T08:39:48;100377.06;;;19.76;nan
6349;BME280;3207;42.648;23.406;2023-04-27T08:42:15;100373.50;;;20.09;nan
6349;BME280;3207;42.648;23.406;2023-04-27T08:44:43;100367.41;;;20.41;nan
6349;BME280;3207;42.648;23.406;2023-04-27T08:47:10;100375.91;;;20.53;nan
6349;BME280;3207;42.648;23.406;2023-04-27T08:49:37;100371.56;;;20.52;nan
6349;BME280;3207;42.648;23.406;2023-04-27T08:52:12;100369.91;;;20.59;nan
6349;BME280;3207;42.648;23.406;2023-04-27T08:54:39;100379.00;;;20.80;nan
6349;BME280;3207;42.648;23.406;2023-04-27T08:57:09;100382.47;;;21.05;nan
6349;BME280;3207;42.648;23.406;2023-04-27T08:59:37;100379.28;;;21.10;nan
6349;BME280;3207;42.648;23.406;2023-04-27T09:02:04;100379.13;;;21.11;nan
6349;BME280;3207;42.648;23.406;2023-04-27T09:04:38;100391.13;;;20.91;nan
6349;BME280;3207;42.648;23.406;2023-04-27T09:07:14;100368.88;;;20.84;nan
6349;BME280;3207;42.648;23.406;2023-04-27T09:09:41;100389.44;;;20.98;nan
6349;BME280;3207;42.648;23.406;2023-04-27T09:12:15;100382.50;;;20.97;nan
6349;BME280;3207;42.648;23.406;2023-04-27T09:14:43;100397.97;;;20.69;nan
6349;BME280;3207;42.648;23.406;2023-04-27T09:17:24;100385.19;;;20.73;nan
6349;BME280;3207;42.648;23.406;2023-04-27T09:19:51;100375.22;;;20.42;nan
6349;BME280;3207;42.648;23.406;2023-04-27T09:22:20;100376.72;;;20.37;nan
6349;BME280;3207;42.648;23.406;2023-04-27T09:24:50;100380.19;;;20.45;nan
6349;BME280;3207;42.648;23.406;2023-04-27T09:27:18;100368.72;;;20.69;nan
6349;BME280;3207;42.648;23.406;2023-04-27T09:29:46;100383.44;;;21.12;nan
6349;BME280;3207;42.648;23.406;2023-04-27T09:32:14;100378.78;;;21.14;nan
6349;BME280;3207;42.648;23.406;2023-04-27T09:34:41;100376.91;;;21.39;nan
6349;BME280;3207;42.648;23.406;2023-04-27T09:37:09;100372.44;;;21.71;nan
6349;BME280;3207;42.648;23.406;2023-04-27T09:39:37;100348.31;;;21.95;nan
6349;BME280;3207;42.648;23.406;2023-04-27T09:42:05;100364.69;;;22.15;nan
6349;BME280;3207;42.648;23.406;2023-04-27T09:44:33;100360.31;;;22.22;nan
6349;BME280;3207;42.648;23.406;2023-04-27T09:47:00;100368.16;;;22.23;nan
6349;BME280;3207;42.648;23.406;2023-04-27T09:49:27;100365.09;;;22.04;nan
6349;BME280;3207;42.648;23.406;2023-04-27T09:51:55;100359.78;;;21.73;nan
6349;BME280;3207;42.648;23.406;2023-04-27T09:54:26;100362.06;;;21.45;nan
6349;BME280;3207;42.648;23.406;2023-04-27T09:57:02;100354.75;;;21.47;nan
6349;BME280;3207;42.648;23.406;2023-04-27T09:59:52;100358.03;;;21.57;nan
6349;BME280;3207;42.648;23.406;2023-04-27T10:02:23;100356.38;;;21.56;nan
6349;BME280;3207;42.648;23.406;2023-04-27T10:05:20;100357.31;;;21.71;nan
6349;BME280;3207;42.648;23.406;2023-04-27T10:07:51;100354.03;;;21.92;nan
6349;BME280;3207;42.648;23.406;2023-04-27T10:10:18;100345.28;;;22.06;nan
6349;BME280;3207;42.648;23.406;2023-04-27T10:12:56;100352.75;;;22.11;nan
6349;BME280;3207;42.648;23.406;2023-04-27T10:15:27;100342.72;;;21.90;nan
6349;BME280;3207;42.648;23.406;2023-04-27T10:17:54;100336.03;;;21.71;nan
6349;BME280;3207;42.648;23.406;2023-04-27T10:20:30;100328.50;;;21.44;nan
6349;BME280;3207;42.648;23.406;2023-04-27T10:22:58;100336.75;;;21.10;nan
6349;BME280;3207;42.648;23.406;2023-04-27T10:25:26;100321.59;;;21.27;nan
6349;BME280;3207;42.648;23.406;2023-04-27T10:27:56;100324.50;;;21.48;nan
6349;BME280;3207;42.648;23.406;2023-04-27T10:30:25;100316.66;;;21.77;nan
6349;BME280;3207;42.648;23.406;2023-04-27T10:32:58;100314.72;;;21.94;nan
6349;BME280;3207;42.648;23.406;2023-04-27T10:35:32;100315.41;;;22.19;nan
6349;BME280;3207;42.648;23.406;2023-04-27T10:38:05;100314.72;;;22.40;nan
6349;BME280;3207;42.648;23.406;2023-04-27T10:40:33;100301.69;;;22.45;nan
6349;BME280;3207;42.648;23.406;2023-04-27T10:43:08;100308.13;;;22.50;nan
6349;BME280;3207;42.648;23.406;2023-04-27T10:45:36;100297.75;;;22.55;nan
6349;BME280;3207;42.648;23.406;2023-04-27T10:48:04;100297.63;;;22.86;nan
6349;BME280;3207;42.648;23.406;2023-04-27T10:50:31;100300.19;;;22.80;nan
6349;BME280;3207;42.648;23.406;2023-04-27T10:53:02;100299.47;;;22.86;nan
6349;BME280;3207;42.648;23.406;2023-04-27T10:55:30;100302.66;;;23.11;nan
6349;BME280;3207;42.648;23.406;2023-04-27T10:57:57;100296.31;;;23.26;nan
6349;BME280;3207;42.648;23.406;2023-04-27T11:00:27;100293.06;;;22.72;nan
6349;BME280;3207;42.648;23.406;2023-04-27T11:02:55;100296.47;;;22.51;nan
6349;BME280;3207;42.648;23.406;2023-04-27T11:05:24;100306.06;;;22.23;nan
6349;BME280;3207;42.648;23.406;2023-04-27T11:08:03;100295.81;;;22.12;nan
6349;BME280;3207;42.648;23.406;2023-04-27T11:10:31;100297.69;;;21.80;nan
6349;BME280;3207;42.648;23.406;2023-04-27T11:13:06;100299.09;;;21.68;nan
6349;BME280;3207;42.648;23.406;2023-04-27T11:15:45;100301.22;;;21.42;nan
6349;BME280;3207;42.648;23.406;2023-04-27T11:18:12;100268.25;;;21.28;nan
6349;BME280;3207;42.648;23.406;2023-04-27T11:20:40;100294.03;;;22.04;nan
6349;BME280;3207;42.648;23.406;2023-04-27T11:23:07;100291.88;;;22.45;nan
6349;BME280;3207;42.648;23.406;2023-04-27T11:25:35;100285.59;;;22.76;nan
6349;BME280;3207;42.648;23.406;2023-04-27T11:28:03;100288.25;;;23.05;nan
6349;BME280;3207;42.648;23.406;2023-04-27T11:30:30;100279.47;;;23.11;nan
6349;BME280;3207;42.648;23.406;2023-04-27T11:33:07;100276.34;;;23.22;nan
6349;BME280;3207;42.648;23.406;2023-04-27T11:35:33;100274.44;;;23.16;nan
6349;BME280;3207;42.648;23.406;2023-04-27T11:38:00;100279.03;;;22.93;nan
6349;BME280;3207;42.648;23.406;2023-04-27T11:40:27;100274.25;;;22.74;nan
6349;BME280;3207;42.648;23.406;2023-04-27T11:42:58;100284.31;;;22.34;nan
6349;BME280;3207;42.648;23.406;2023-04-27T11:45:28;100276.50;;;22.47;nan
6349;BME280;3207;42.648;23.406;2023-04-27T11:47:58;100281.13;;;22.68;nan
6349;BME280;3207;42.648;23.406;2023-04-27T11:50:25;100281.81;;;22.85;nan
6349;BME280;3207;42.648;23.406;2023-04-27T11:52:52;100275.59;;;22.70;nan
6349;BME280;3207;42.648;23.406;2023-04-27T11:55:20;100281.06;;;22.91;nan
6349;BME280;3207;42.648;23.406;2023-04-27T11:57:47;100278.34;;;23.20;nan
6349;BME280;3207;42.648;23.406;2023-04-27T12:00:15;100281.03;;;23.20;nan
6349;BME280;3207;42.648;23.406;2023-04-27T12:02:43;100276.88;;;23.32;nan
6349;BME280;3207;42.648;23.406;2023-04-27T12:05:11;100275.91;;;23.19;nan
6349;BME280;3207;42.648;23.406;2023-04-27T12:07:38;100273.06;;;23.42;nan
6349;BME280;3207;42.648;23.406;2023-04-27T12:10:06;100274.66;;;23.36;nan
6349;BME280;3207;42.648;23.406;2023-04-27T12:12:33;100268.88;;;23.32;nan
6349;BME280;3207;42.648;23.406;2023-04-27T12:15:00;100274.31;;;23.10;nan
6349;BME280;3207;42.648;23.406;2023-04-27T12:17:27;100269.84;;;22.81;nan
6349;BME280;3207;42.648;23.406;2023-04-27T12:19:54;100267.75;;;22.76;nan
6349;BME280;3207;42.648;23.406;2023-04-27T12:22:25;100261.00;;;22.66;nan
6349;BME280;3207;42.648;23.406;2023-04-27T12:24:53;100257.25;;;22.89;nan
6349;BME280;3207;42.648;23.406;2023-04-27T12:27:20;100251.84;;;22.97;nan
6349;BME280;3207;42.648;23.406;2023-04-27T12:29:47;100256.25;;;22.90;nan
6349;BME280;3207;42.648;23.406;2023-04-27T12:32:13;100253.41;;;22.77;nan
6349;BME280;3207;42.648;23.406;2023-04-27T12:34:40;100253.06;;;22.57;nan
6349;BME280;3207;42.648;23.406;2023-04-27T12:37:07;100244.88;;;22.30;nan
6349;BME280;3207;42.648;23.406;2023-04-27T12:39:35;100247.28;;;22.39;nan
6349;BME280;3207;42.648;23.406;2023-04-27T12:42:03;100250.88;;;22.46;nan
6349;BME280;3207;42.648;23.406;2023-04-27T12:44:29;100243.91;;;22.45;nan
6349;BME280;3207;42.648;23.406;2023-04-27T12:46:56;100248.84;;;22.48;nan
6349;BME280;3207;42.648;23.406;2023-04-27T12:49:23;100249.53;;;22.13;nan
6349;BME280;3207;42.648;23.406;2023-04-27T12:51:51;100247.41;;;22.08;nan
6349;BME280;3207;42.648;23.406;2023-04-27T12:54:18;100244.16;;;21.98;nan
6349;BME280;3207;42.648;23.406;2023-04-27T12:56:46;100238.84;;;21.98;nan
6349;BME280;3207;42.648;23.406;2023-04-27T12:59:13;100234.41;;;22.13;nan
6349;BME280;3207;42.648;23.406;2023-04-27T13:01:41;100231.75;;;22.28;nan
6349;BME280;3207;42.648;23.406;2023-04-27T13:04:08;100230.03;;;22.35;nan
6349;BME280;3207;42.648;23.406;2023-04-27T13:06:35;100229.75;;;22.59;nan
6349;BME280;3207;42.648;23.406;2023-04-27T13:09:02;100197.41;;;22.33;nan
6349;BME280;3207;42.648;23.406;2023-04-27T13:11:29;100235.72;;;22.61;nan
6349;BME280;3207;42.648;23.406;2023-04-27T13:13:58;100225.88;;;22.47;nan
6349;BME280;3207;42.648;23.406;2023-04-27T13:16:26;100224.06;;;22.33;nan
6349;BME280;3207;42.648;23.406;2023-04-27T13:18:53;100235.88;;;22.31;nan
6349;BME280;3207;42.648;23.406;2023-04-27T13:21:20;100221.59;;;22.09;nan
6349;BME280;3207;42.648;23.406;2023-04-27T13:23:47;100235.56;;;22.11;nan
6349;BME280;3207;42.648;23.406;2023-04-27T13:26:15;100224.41;;;21.92;nan